createdAt,value
2019-05-17T00:01:07.652Z,80.00
2019-05-17T00:03:37.808Z,80.50
2019-05-17T00:06:07.953Z,80.50
2019-05-17T00:08:38.521Z,80.50
2019-05-17T00:11:08.943Z,80.70
2019-05-17T00:13:40.175Z,81.00
2019-05-17T00:16:11.822Z,81.10
2019-05-17T00:18:41.857Z,81.20
2019-05-17T00:21:12.268Z,81.30
2019-05-17T00:23:42.347Z,81.40
2019-05-17T00:26:12.338Z,81.60
2019-05-17T00:28:42.358Z,81.70
2019-05-17T00:31:12.967Z,81.80
2019-05-17T00:33:43.359Z,81.90
2019-05-17T00:36:13.388Z,82.20
2019-05-17T00:38:50.699Z,82.20
2019-05-17T00:41:18.124Z,82.40
2019-05-17T00:43:48.199Z,82.60
2019-05-17T00:46:18.485Z,83.00
2019-05-17T00:48:48.609Z,83.90
2019-05-17T00:51:19.016Z,83.40
2019-05-17T00:53:49.318Z,83.60
2019-05-17T00:56:19.439Z,83.70
2019-05-17T00:58:49.915Z,83.60
2019-05-17T01:01:20.348Z,83.60
2019-05-17T01:03:50.356Z,83.50
2019-05-17T01:06:20.721Z,83.70
2019-05-17T01:09:00.913Z,84.00
2019-05-17T01:11:22.839Z,84.10
2019-05-17T01:13:55.481Z,84.40
2019-05-17T01:16:27.105Z,84.80
2019-05-17T01:18:57.319Z,85.00
2019-05-17T01:21:27.731Z,85.10
2019-05-17T01:23:57.955Z,85.00
2019-05-17T01:26:27.999Z,85.00
2019-05-17T01:28:58.150Z,84.90
2019-05-17T01:31:28.186Z,84.80
2019-05-17T01:33:58.301Z,84.90
2019-05-17T01:36:28.677Z,85.00
2019-05-17T01:39:00.214Z,84.90
2019-05-17T01:41:30.198Z,85.70
2019-05-17T01:44:00.480Z,84.90
2019-05-17T01:46:30.974Z,84.90
2019-05-17T01:49:02.487Z,85.00
2019-05-17T01:51:32.898Z,84.90
2019-05-17T01:54:03.317Z,85.00
2019-05-17T01:56:33.332Z,84.80
2019-05-17T01:59:06.618Z,85.50
2019-05-17T02:01:37.162Z,85.60
2019-05-17T02:04:07.422Z,85.60
2019-05-17T02:06:37.465Z,86.20
2019-05-17T02:09:07.722Z,86.50
2019-05-17T02:11:37.948Z,86.70
2019-05-17T02:14:08.370Z,86.90
2019-05-17T02:16:40.306Z,86.30
2019-05-17T02:19:10.431Z,86.90
2019-05-17T02:21:40.540Z,86.90
2019-05-17T02:24:10.555Z,87.30
2019-05-17T02:26:40.576Z,87.20
2019-05-17T02:29:12.039Z,87.40
2019-05-17T02:31:43.705Z,87.60
2019-05-17T02:34:15.307Z,87.60
2019-05-17T02:36:47.406Z,87.60
2019-05-17T02:39:17.921Z,87.70
2019-05-17T02:41:47.995Z,88.10
2019-05-17T02:44:18.007Z,88.40
2019-05-17T02:46:47.990Z,88.60
2019-05-17T02:49:18.323Z,88.50
2019-05-17T02:51:48.374Z,88.40
2019-05-17T02:54:18.661Z,88.10
2019-05-17T02:56:48.954Z,88.70
2019-05-17T02:59:18.989Z,88.50
2019-05-17T03:01:52.480Z,88.80
2019-05-17T03:04:23.612Z,88.80
2019-05-17T03:06:53.445Z,89.70
2019-05-17T03:09:24.056Z,88.50
2019-05-17T03:11:57.010Z,89.00
2019-05-17T03:14:27.426Z,89.00
2019-05-17T03:16:57.446Z,89.20
2019-05-17T03:19:27.426Z,89.10
2019-05-17T03:21:57.699Z,89.00
2019-05-17T03:24:27.755Z,89.20
2019-05-17T03:26:58.134Z,89.30
2019-05-17T03:29:28.154Z,89.40
2019-05-17T03:32:00.546Z,89.70
2019-05-17T03:34:36.412Z,89.70
2019-05-17T03:37:06.058Z,90.10
2019-05-17T03:39:34.310Z,90.10
2019-05-17T03:42:04.645Z,90.10
2019-05-17T03:44:34.791Z,90.00
2019-05-17T03:47:04.870Z,90.10
2019-05-17T03:49:39.356Z,90.10
2019-05-17T03:52:07.913Z,90.10
2019-05-17T03:54:37.967Z,90.10
2019-05-17T03:57:08.327Z,90.20
2019-05-17T03:59:38.336Z,90.20
2019-05-17T04:02:08.434Z,89.70
2019-05-17T04:04:38.858Z,90.00
2019-05-17T04:07:12.539Z,89.80
2019-05-17T04:09:43.797Z,90.10
2019-05-17T04:12:13.887Z,89.40
2019-05-17T04:14:45.417Z,89.30
2019-05-17T04:17:15.924Z,89.30
2019-05-17T04:19:45.967Z,89.20
2019-05-17T04:22:16.255Z,89.00
2019-05-17T04:24:46.356Z,88.80
2019-05-17T04:27:16.762Z,88.70
2019-05-17T04:29:46.831Z,88.60
2019-05-17T04:32:16.959Z,88.70
2019-05-17T04:34:47.206Z,88.30
2019-05-17T04:37:17.363Z,88.20
2019-05-17T04:39:47.976Z,88.00
2019-05-17T04:42:18.398Z,87.80
2019-05-17T04:44:48.461Z,87.70
2019-05-17T04:47:22.954Z,87.60
2019-05-17T04:49:53.691Z,87.60
2019-05-17T04:52:24.208Z,87.40
2019-05-17T04:54:54.859Z,87.30
2019-05-17T04:57:24.863Z,86.80
2019-05-17T04:59:54.985Z,86.50
2019-05-17T05:02:25.145Z,85.90
2019-05-17T05:04:55.621Z,85.70
2019-05-17T05:07:25.782Z,85.70
2019-05-17T05:09:56.005Z,85.80
2019-05-17T05:12:26.073Z,85.70
2019-05-17T05:14:56.306Z,86.20
2019-05-17T05:17:26.722Z,85.00
2019-05-17T05:19:57.146Z,84.20
2019-05-17T05:22:27.697Z,84.30
2019-05-17T05:24:57.902Z,84.10
2019-05-17T05:27:28.590Z,83.90
2019-05-17T05:29:59.386Z,83.80
2019-05-17T05:32:31.534Z,83.90
2019-05-17T05:35:03.140Z,83.20
2019-05-17T05:37:33.871Z,83.10
2019-05-17T05:40:05.295Z,82.50
2019-05-17T05:42:35.715Z,82.10
2019-05-17T05:45:07.752Z,81.80
2019-05-17T05:47:38.367Z,81.60
2019-05-17T05:50:08.533Z,81.40
2019-05-17T05:52:38.912Z,80.80
2019-05-17T05:55:09.338Z,80.60
2019-05-17T05:57:42.067Z,80.40
2019-05-17T06:00:13.024Z,80.30
2019-05-17T06:02:44.365Z,80.00
2019-05-17T06:05:17.224Z,80.00
2019-05-17T06:07:47.217Z,80.00
2019-05-17T06:10:18.447Z,79.70
2019-05-17T06:12:51.718Z,78.50
2019-05-17T06:15:21.989Z,80.10
2019-05-17T06:17:52.547Z,79.80
2019-05-17T06:20:22.885Z,79.50
2019-05-17T06:22:55.262Z,79.40
2019-05-17T06:25:25.341Z,78.90
2019-05-17T06:27:55.804Z,78.40
2019-05-17T06:30:26.071Z,77.50
2019-05-17T06:32:56.258Z,77.10
2019-05-17T06:35:27.034Z,77.40
2019-05-17T06:37:57.210Z,77.40
2019-05-17T06:40:27.658Z,76.80
2019-05-17T06:42:58.380Z,76.90
2019-05-17T06:45:28.393Z,75.40
2019-05-17T06:47:58.727Z,75.30
2019-05-17T06:50:29.155Z,75.20
2019-05-17T06:52:59.310Z,74.50
2019-05-17T06:55:31.495Z,73.90
2019-05-17T06:58:02.710Z,72.90
2019-05-17T07:00:34.730Z,72.60
2019-05-17T07:03:05.205Z,72.30
2019-05-17T07:05:37.025Z,71.70
2019-05-17T07:08:07.379Z,71.30
2019-05-17T07:10:39.647Z,70.50
2019-05-17T07:13:10.703Z,69.90
2019-05-17T07:15:47.196Z,69.10
2019-05-17T07:18:13.266Z,68.10
2019-05-17T07:20:45.035Z,68.50
2019-05-17T07:23:19.630Z,67.50
2019-05-17T07:25:50.172Z,67.10
2019-05-17T07:28:20.110Z,66.80
2019-05-17T07:30:51.444Z,66.70
2019-05-17T07:33:22.236Z,66.30
2019-05-17T07:35:54.191Z,66.20
2019-05-17T07:38:24.410Z,66.00
2019-05-17T07:40:56.284Z,65.30
2019-05-17T07:43:26.522Z,65.20
2019-05-17T07:45:56.881Z,65.30
2019-05-17T07:48:27.403Z,65.10
2019-05-17T07:50:59.386Z,65.20
2019-05-17T07:53:30.723Z,64.50
2019-05-17T07:56:01.359Z,64.10
2019-05-17T07:58:32.269Z,63.50
2019-05-17T08:01:02.597Z,63.30
2019-05-17T08:03:32.829Z,62.60
2019-05-17T08:06:04.004Z,62.20
2019-05-17T08:08:34.127Z,62.40
2019-05-17T08:11:04.514Z,62.90
2019-05-17T08:13:34.768Z,62.90
2019-05-17T08:16:06.600Z,62.50
2019-05-17T08:18:37.022Z,61.60
2019-05-17T08:21:07.226Z,61.40
2019-05-17T08:23:39.833Z,61.10
2019-05-17T08:26:10.723Z,60.60
2019-05-17T08:28:41.623Z,60.20
2019-05-17T08:31:11.813Z,60.30
2019-05-17T08:33:42.318Z,59.90
2019-05-17T08:36:12.785Z,59.70
2019-05-17T08:38:42.827Z,59.70
2019-05-17T08:41:13.233Z,60.20
2019-05-17T08:43:47.026Z,59.80
2019-05-17T08:46:15.426Z,59.60
2019-05-17T08:48:46.140Z,59.40
2019-05-17T08:51:16.262Z,59.00
2019-05-17T08:53:46.446Z,59.10
2019-05-17T08:56:16.793Z,58.90
2019-05-17T08:58:49.688Z,58.60
2019-05-17T09:01:19.647Z,58.00
2019-05-17T09:03:50.658Z,57.30
2019-05-17T09:06:20.951Z,57.00
2019-05-17T09:08:51.553Z,56.30
2019-05-17T09:11:23.523Z,55.90
2019-05-17T09:13:58.235Z,55.50
2019-05-17T09:16:25.706Z,55.20
2019-05-17T09:18:56.341Z,54.60
2019-05-17T09:21:26.896Z,54.50
2019-05-17T09:23:59.570Z,55.00
2019-05-17T09:26:29.474Z,54.70
2019-05-17T09:29:01.224Z,54.10
2019-05-17T09:31:31.756Z,53.30
2019-05-17T09:34:03.602Z,53.60
2019-05-17T09:36:33.716Z,53.70
2019-05-17T09:39:09.335Z,53.40
2019-05-17T09:41:40.142Z,52.60
2019-05-17T09:44:16.512Z,52.50
2019-05-17T09:46:50.242Z,52.30
2019-05-17T09:49:20.638Z,51.90
2019-05-17T09:51:51.134Z,51.40
2019-05-17T09:54:37.233Z,51.20
2019-05-17T09:56:54.070Z,51.30
2019-05-17T09:59:24.509Z,51.50
2019-05-17T10:01:55.564Z,51.40
2019-05-17T10:04:26.179Z,51.50
2019-05-17T10:06:56.211Z,51.40
2019-05-17T10:09:28.118Z,51.30
2019-05-17T10:12:00.024Z,51.20
2019-05-17T10:14:31.351Z,50.90
2019-05-17T10:17:03.618Z,50.40
2019-05-17T10:19:33.855Z,50.20
2019-05-17T10:22:04.695Z,50.10
2019-05-17T10:24:38.948Z,49.90
2019-05-17T10:27:06.662Z,49.80
2019-05-17T10:29:39.530Z,49.30
2019-05-17T10:32:10.467Z,48.80
2019-05-17T10:34:41.387Z,48.70
2019-05-17T10:37:11.453Z,48.30
2019-05-17T10:39:42.156Z,48.10
2019-05-17T10:42:14.240Z,49.10
2019-05-17T10:44:47.847Z,49.90
2019-05-17T10:47:16.447Z,49.20
2019-05-17T10:49:46.750Z,50.20
2019-05-17T10:52:16.862Z,52.00
2019-05-17T10:54:47.413Z,52.30
2019-05-17T10:57:19.479Z,52.30
2019-05-17T10:59:49.981Z,52.10
2019-05-17T11:02:20.110Z,51.10
2019-05-17T11:04:50.759Z,50.90
2019-05-17T11:07:22.996Z,50.70
2019-05-17T11:09:53.034Z,49.80
2019-05-17T11:12:23.463Z,48.70
2019-05-17T11:15:09.845Z,48.80
2019-05-17T11:17:27.160Z,48.70
2019-05-17T11:19:57.296Z,48.30
2019-05-17T11:22:27.355Z,48.70
2019-05-17T11:24:57.994Z,48.70
2019-05-17T11:27:28.199Z,48.10
2019-05-17T11:29:59.824Z,49.30
2019-05-17T11:32:29.995Z,48.40
2019-05-17T11:35:00.524Z,47.90
2019-05-17T11:37:30.618Z,47.60
2019-05-17T11:40:00.883Z,46.90
2019-05-17T11:42:31.593Z,46.80
2019-05-17T11:45:01.726Z,46.90
2019-05-17T11:47:31.963Z,46.90
2019-05-17T11:50:02.704Z,46.40
2019-05-17T11:52:45.134Z,45.90
2019-05-17T11:55:20.040Z,43.80
2019-05-17T11:57:50.154Z,44.40
2019-05-17T12:00:21.790Z,45.40
2019-05-17T12:02:51.920Z,45.30
2019-05-17T12:05:22.306Z,45.00
2019-05-17T12:07:52.658Z,44.50
2019-05-17T12:10:22.808Z,44.40
2019-05-17T12:12:53.265Z,44.20
2019-05-17T12:15:23.412Z,43.90
2019-05-17T12:17:53.633Z,43.90
2019-05-17T12:20:24.177Z,43.80
2019-05-17T12:22:54.246Z,43.80
2019-05-17T12:25:24.618Z,44.50
2019-05-17T12:27:54.842Z,43.60
2019-05-17T12:30:26.040Z,43.30
2019-05-17T12:32:56.223Z,42.70
2019-05-17T12:35:28.026Z,42.30
2019-05-17T12:37:58.388Z,42.50
2019-05-17T12:40:28.886Z,43.40
2019-05-17T12:42:59.219Z,43.40
2019-05-17T12:45:29.982Z,43.10
2019-05-17T12:48:00.095Z,42.30
2019-05-17T12:50:30.306Z,41.30
2019-05-17T12:53:00.662Z,41.40
2019-05-17T12:55:31.271Z,41.00
2019-05-17T12:58:01.872Z,40.70
2019-05-17T13:00:31.978Z,40.50
2019-05-17T13:03:02.509Z,39.70
2019-05-17T13:05:32.973Z,39.10
2019-05-17T13:08:03.098Z,39.90
2019-05-17T13:10:33.731Z,40.40
2019-05-17T13:13:04.661Z,40.00
2019-05-17T13:15:35.226Z,37.10
2019-05-17T13:18:05.317Z,37.50
2019-05-17T13:20:35.528Z,37.50
2019-05-17T13:23:06.458Z,37.10
2019-05-17T13:25:36.630Z,37.60
2019-05-17T13:28:07.386Z,37.30
2019-05-17T13:30:37.612Z,37.20
2019-05-17T13:33:07.767Z,36.10
2019-05-17T13:35:38.444Z,35.70
2019-05-17T13:38:08.606Z,36.30
2019-05-17T13:40:40.173Z,36.20
2019-05-17T13:43:13.146Z,34.90
2019-05-17T13:45:44.319Z,35.00
2019-05-17T13:48:17.991Z,35.30
2019-05-17T13:50:52.145Z,35.20
2019-05-17T13:53:22.727Z,34.40
2019-05-17T13:55:53.695Z,34.20
2019-05-17T13:58:24.108Z,34.70
2019-05-17T14:00:56.779Z,34.20
2019-05-17T14:03:27.556Z,33.90
2019-05-17T14:05:58.021Z,35.00
2019-05-17T14:08:28.208Z,33.30
2019-05-17T14:10:59.432Z,32.60
2019-05-17T14:13:30.003Z,32.10
2019-05-17T14:16:00.401Z,32.90
2019-05-17T14:18:30.636Z,32.80
2019-05-17T14:21:02.607Z,32.70
2019-05-17T14:23:33.008Z,33.10
2019-05-17T14:26:05.590Z,33.20
2019-05-17T14:28:35.688Z,32.70
2019-05-17T14:31:06.813Z,32.40
2019-05-17T14:33:37.328Z,31.60
2019-05-17T14:36:10.225Z,31.90
2019-05-17T14:38:40.376Z,31.90
2019-05-17T14:41:10.737Z,31.00
2019-05-17T14:43:41.023Z,31.00
2019-05-17T14:46:11.656Z,31.80
2019-05-17T14:48:43.768Z,32.30
2019-05-17T14:51:14.066Z,32.70
2019-05-17T14:53:45.277Z,32.70
2019-05-17T14:56:17.942Z,32.50
2019-05-17T14:58:49.658Z,32.30
2019-05-17T15:01:20.023Z,32.80
2019-05-17T15:03:51.508Z,32.80
2019-05-17T15:06:21.886Z,32.60
2019-05-17T15:08:52.371Z,32.50
2019-05-17T15:11:22.664Z,31.80
2019-05-17T15:13:52.931Z,31.90
2019-05-17T15:16:23.334Z,31.90
2019-05-17T15:18:55.177Z,32.80
2019-05-17T15:21:25.539Z,32.60
2019-05-17T15:23:56.575Z,32.50
2019-05-17T15:26:26.847Z,32.10
2019-05-17T15:28:58.304Z,32.10
2019-05-17T15:31:28.584Z,32.00
2019-05-17T15:33:59.454Z,31.60
2019-05-17T15:36:29.650Z,30.70
2019-05-17T15:39:01.269Z,31.10
2019-05-17T15:41:34.097Z,31.00
2019-05-17T15:44:04.681Z,31.00
2019-05-17T15:46:35.052Z,31.00
2019-05-17T15:49:06.989Z,30.50
2019-05-17T15:51:37.139Z,30.90
2019-05-17T15:54:07.564Z,30.00
2019-05-17T15:56:39.687Z,30.10
2019-05-17T15:59:09.854Z,30.70
2019-05-17T16:01:40.592Z,31.10
2019-05-17T16:04:12.055Z,31.10
2019-05-17T16:06:42.580Z,30.90
2019-05-17T16:09:12.735Z,31.60
2019-05-17T16:14:12.563Z,30.90
2019-05-17T16:16:45.081Z,31.40
2019-05-17T16:19:15.474Z,30.90
2019-05-17T16:21:45.892Z,30.70
2019-05-17T16:24:16.205Z,30.40
2019-05-17T16:26:59.061Z,30.00
2019-05-17T16:29:29.201Z,29.60
2019-05-17T16:31:59.764Z,29.70
2019-05-17T16:34:29.911Z,29.90
2019-05-17T16:37:00.392Z,30.20
2019-05-17T16:39:31.784Z,30.50
2019-05-17T16:42:02.144Z,30.80
2019-05-17T16:44:32.804Z,31.30
2019-05-17T16:47:05.864Z,32.30
2019-05-17T16:49:36.041Z,33.50
2019-05-17T16:52:08.422Z,34.20
2019-05-17T16:54:39.483Z,34.40
2019-05-17T16:57:10.804Z,35.50
2019-05-17T16:59:43.668Z,36.80
2019-05-17T17:02:14.319Z,37.90
2019-05-17T17:04:45.434Z,39.00
2019-05-17T17:07:16.142Z,40.20
2019-05-17T17:09:47.181Z,41.90
2019-05-17T17:12:17.586Z,44.70
2019-05-17T17:14:50.499Z,46.70
2019-05-17T17:17:21.253Z,48.50
2019-05-17T17:19:51.914Z,52.20
2019-05-17T17:22:24.992Z,55.30
2019-05-17T17:24:55.619Z,56.30
2019-05-17T17:27:28.772Z,57.10
2019-05-17T17:29:59.644Z,62.80
2019-05-17T17:35:00.895Z,67.40
2019-05-17T17:37:31.427Z,70.70
2019-05-17T17:40:04.015Z,73.70
2019-05-17T17:42:35.375Z,76.20
2019-05-17T17:45:08.054Z,78.00
2019-05-17T17:47:38.778Z,78.10
2019-05-17T17:50:09.101Z,77.60
2019-05-17T17:52:39.740Z,77.60
2019-05-17T17:55:10.837Z,77.60
2019-05-17T17:57:41.706Z,78.20
2019-05-17T18:00:12.581Z,78.80
2019-05-17T18:02:43.154Z,78.80
2019-05-17T18:05:15.480Z,79.70
2019-05-17T18:07:46.138Z,80.80
2019-05-17T18:10:31.978Z,80.40
2019-05-17T18:13:02.092Z,79.50
2019-05-17T18:15:37.847Z,77.30
2019-05-17T18:18:08.892Z,76.60
2019-05-17T18:20:40.062Z,78.00
2019-05-17T18:23:12.183Z,77.60
2019-05-17T18:25:44.690Z,78.30
2019-05-17T18:28:14.879Z,78.60
2019-05-17T18:30:45.022Z,79.40
2019-05-17T18:33:17.041Z,79.10
2019-05-17T18:35:47.360Z,79.10
2019-05-17T18:38:22.479Z,79.60
2019-05-17T18:40:52.818Z,80.00
2019-05-17T18:43:23.086Z,80.30
2019-05-17T18:45:53.171Z,80.90
2019-05-17T18:48:23.739Z,80.30
2019-05-17T18:50:55.244Z,79.50
2019-05-17T18:53:25.951Z,79.90
2019-05-17T18:55:56.178Z,80.60
2019-05-17T18:58:26.480Z,80.50
2019-05-17T19:00:56.670Z,80.40
2019-05-17T19:03:27.536Z,80.40
2019-05-17T19:05:57.642Z,81.90
2019-05-17T19:08:28.195Z,81.20
2019-05-17T19:10:58.330Z,80.80
2019-05-17T19:13:28.619Z,80.50
2019-05-17T19:15:59.200Z,79.90
2019-05-17T19:18:31.411Z,79.10
2019-05-17T19:21:01.568Z,79.40
2019-05-17T19:23:31.825Z,80.00
2019-05-17T19:26:02.487Z,79.90
2019-05-17T19:28:33.918Z,80.30
2019-05-17T19:31:04.436Z,80.60
2019-05-17T19:33:34.619Z,81.10
2019-05-17T19:36:05.492Z,82.40
2019-05-17T19:38:35.811Z,81.80
2019-05-17T19:41:06.614Z,82.40
2019-05-17T19:43:37.399Z,82.90
2019-05-17T19:46:07.598Z,81.80
2019-05-17T19:48:37.857Z,81.30
2019-05-17T19:51:07.950Z,81.80
2019-05-17T19:53:38.195Z,80.80
2019-05-17T19:56:08.383Z,81.30
2019-05-17T19:58:38.916Z,81.60
2019-05-17T20:01:09.023Z,81.60
2019-05-17T20:03:39.127Z,80.80
2019-05-17T20:06:09.572Z,79.90
2019-05-17T20:08:40.059Z,80.00
2019-05-17T20:11:10.681Z,80.20
2019-05-17T20:13:41.034Z,81.80
2019-05-17T20:16:11.171Z,83.40
2019-05-17T20:18:41.402Z,84.00
2019-05-17T20:21:13.254Z,84.50
2019-05-17T20:23:44.973Z,84.30
2019-05-17T20:26:15.150Z,84.60
2019-05-17T20:28:45.278Z,84.60
2019-05-17T20:31:15.369Z,83.40
2019-05-17T20:33:45.467Z,82.30
2019-05-17T20:36:15.584Z,80.50
2019-05-17T20:38:46.201Z,80.20
2019-05-17T20:41:16.363Z,80.90
2019-05-17T20:43:46.687Z,81.50
2019-05-17T20:46:17.076Z,82.60
2019-05-17T20:48:47.322Z,83.30
2019-05-17T20:51:17.524Z,84.20
2019-05-17T20:53:47.866Z,84.60
2019-05-17T20:56:32.001Z,84.90
2019-05-17T20:58:49.931Z,85.30
2019-05-17T21:01:20.172Z,86.10
2019-05-17T21:03:50.902Z,86.30
2019-05-17T21:06:21.168Z,86.50
2019-05-17T21:08:51.968Z,87.30
2019-05-17T21:11:22.250Z,86.90
2019-05-17T21:13:53.510Z,87.00
2019-05-17T21:16:23.532Z,87.20
2019-05-17T21:18:53.603Z,87.30
2019-05-17T21:21:23.719Z,87.30
2019-05-17T21:23:55.442Z,87.40
2019-05-17T21:26:25.633Z,87.60
2019-05-17T21:28:55.715Z,88.00
2019-05-17T21:31:26.001Z,87.20
2019-05-17T21:33:56.380Z,87.50
2019-05-17T21:36:26.496Z,87.90
2019-05-17T21:38:56.559Z,87.90
2019-05-17T21:41:26.697Z,87.90
2019-05-17T21:43:57.191Z,87.90
2019-05-17T21:46:27.342Z,88.00
2019-05-17T21:48:57.470Z,88.10
2019-05-17T21:51:27.622Z,88.30
2019-05-17T21:53:58.134Z,88.20
2019-05-17T21:56:28.279Z,88.30
2019-05-17T21:58:58.803Z,88.30
2019-05-17T22:01:30.460Z,88.40
2019-05-17T22:04:02.168Z,88.30
2019-05-17T22:06:32.233Z,88.30
2019-05-17T22:09:03.113Z,88.40
2019-05-17T22:11:33.314Z,88.30
2019-05-17T22:14:03.383Z,88.40
2019-05-17T22:16:33.490Z,88.40
2019-05-17T22:19:04.788Z,88.50
2019-05-17T22:21:34.853Z,88.60
2019-05-17T22:24:06.560Z,89.50
2019-05-17T22:26:36.963Z,88.90
2019-05-17T22:29:07.223Z,88.80
2019-05-17T22:31:38.998Z,88.80
2019-05-17T22:34:10.342Z,89.00
2019-05-17T22:36:40.780Z,89.00
2019-05-17T22:39:10.961Z,89.50
2019-05-17T22:41:41.127Z,89.90
2019-05-17T22:44:11.269Z,90.10
2019-05-17T22:46:42.032Z,90.10
2019-05-17T22:49:12.192Z,90.00
2019-05-17T22:51:42.380Z,90.00
2019-05-17T22:54:12.867Z,90.00
2019-05-17T22:56:42.978Z,90.10
2019-05-17T22:59:13.611Z,90.30
2019-05-17T23:01:43.832Z,90.40
2019-05-17T23:04:14.382Z,90.40
2019-05-17T23:06:44.523Z,90.50
2019-05-17T23:09:14.943Z,90.40
2019-05-17T23:11:45.316Z,90.40
2019-05-17T23:14:15.986Z,90.40
2019-05-17T23:16:51.595Z,90.30
2019-05-17T23:19:19.471Z,90.50
2019-05-17T23:21:49.558Z,90.40
2019-05-17T23:24:22.210Z,90.40
2019-05-17T23:26:52.315Z,90.30
2019-05-17T23:29:22.433Z,90.40
2019-05-17T23:31:52.606Z,90.50
2019-05-17T23:34:24.102Z,90.50
2019-05-17T23:36:54.157Z,90.50
2019-05-17T23:39:24.546Z,90.80
2019-05-17T23:41:54.780Z,90.90
2019-05-17T23:44:25.370Z,90.90
2019-05-17T23:47:06.826Z,90.90
2019-05-17T23:49:27.814Z,90.90
2019-05-17T23:51:58.428Z,90.80
2019-05-17T23:54:28.433Z,90.70
2019-05-17T23:56:58.758Z,90.70
2019-05-17T23:59:30.387Z,90.60
